Terminal Aerodrome Forecast
Issued by NWS

Home | Current Version | Previous Version | Text Only | Print | Product List | Glossary Off
Versions: 1 2 3 4 5 6 7 8 9 10 11 12 13 14 15 16 17 18 19

000
FTUS43 KGRB 291736
TAFRHI
TAF
KRHI 291736Z 2918/3018 24010G15KT P6SM VCSH SCT020 OVC050
      TEMPO 2918/2920 4SM -SHRA BKN012
     FM292200 26009G16KT P6SM BKN035
     FM300200 26004KT P6SM SCT035
      TEMPO 3008/3012 2SM BR
     FM301400 29008KT P6SM SCT030=

USA.gov is the U.S. government's official web portal to all federal, state and local government web resources and services.